Time;durP1;ratioP1;P1;durP2;ratioP2;P2;SDS_P1;SDS_P2;PMS_P1;PMS_P2;Temp;Humidity;BMP_temperature;BMP_pressure;BME280_temperature;BME280_humidity;BME280_pressure;Samples;Min_cycle;Max_cycle;Signal;HPM_P1;HPM_P2
2022/02/25 00:02:01;;;;;;;0.50;0.50;;;9.50;74.30;;;;;;5087522;28;20545;-84
2022/02/25 00:04:30;;;;;;;0.47;0.43;;;9.50;71.30;;;;;;5088768;28;20504;-82
2022/02/25 00:06:58;;;;;;;1.60;0.60;;;9.50;71.50;;;;;;5086709;28;20454;-84
2022/02/25 00:09:27;;;;;;;0.60;0.50;;;9.40;68.90;;;;;;5079149;28;20453;-83
2022/02/25 00:11:55;;;;;;;1.33;0.50;;;9.40;65.10;;;;;;5072501;28;21064;-83
2022/02/25 00:14:24;;;;;;;0.50;0.50;;;9.40;67.80;;;;;;5081952;28;21328;-83
2022/02/25 00:16:52;;;;;;;1.80;0.60;;;9.50;69.70;;;;;;5082809;28;20474;-83
2022/02/25 00:19:21;;;;;;;0.50;0.50;;;9.40;66.10;;;;;;5082333;28;20476;-82
2022/02/25 00:21:50;;;;;;;1.63;0.50;;;9.30;63.50;;;;;;5091426;28;20456;-83
2022/02/25 00:24:18;;;;;;;0.63;0.63;;;9.30;63.60;;;;;;5091798;28;20468;-81
2022/02/25 00:26:47;;;;;;;0.80;0.47;;;9.20;63.90;;;;;;5091261;28;20449;-81
2022/02/25 00:29:15;;;;;;;1.03;0.63;;;9.20;59.10;;;;;;5080898;28;20430;-83
2022/02/25 00:31:43;;;;;;;2.63;1.27;;;9.00;56.00;;;;;;5087520;28;20456;-83
2022/02/25 00:34:12;;;;;;;0.60;0.60;;;8.90;55.00;;;;;;5089696;28;20862;-83
2022/02/25 00:36:41;;;;;;;0.70;0.50;;;8.90;54.40;;;;;;5090805;28;20524;-83
2022/02/25 00:39:10;;;;;;;0.50;0.50;;;9.00;54.60;;;;;;5085965;28;20446;-82
2022/02/25 00:41:38;;;;;;;2.13;0.77;;;8.90;53.10;;;;;;5090065;28;20460;-83
2022/02/25 00:44:06;;;;;;;0.50;0.50;;;9.00;53.30;;;;;;5088479;28;20475;-83
2022/02/25 00:46:34;;;;;;;0.40;0.40;;;9.00;51.60;;;;;;5090030;28;20481;-82
2022/02/25 00:49:03;;;;;;;3.70;0.73;;;8.80;52.20;;;;;;5088942;28;20465;-82
2022/02/25 00:51:31;;;;;;;0.53;0.50;;;9.00;52.60;;;;;;5088907;28;20456;-81
2022/02/25 00:54:00;;;;;;;0.60;0.60;;;8.80;48.60;;;;;;5087896;28;20579;-83
2022/02/25 00:56:29;;;;;;;1.73;0.50;;;8.80;48.70;;;;;;5090198;28;20457;-82
2022/02/25 00:58:57;;;;;;;0.60;0.50;;;9.00;49.10;;;;;;5082337;28;20460;-82
2022/02/25 01:01:25;;;;;;;0.73;0.60;;;8.80;49.20;;;;;;5082442;28;20475;-83
2022/02/25 01:03:54;;;;;;;0.50;0.50;;;8.80;49.50;;;;;;5082258;28;21119;-82
2022/02/25 01:06:22;;;;;;;0.60;0.50;;;8.70;46.60;;;;;;5082852;28;20467;-81
2022/02/25 01:08:50;;;;;;;2.60;0.60;;;8.60;43.80;;;;;;5082081;28;20962;-82
2022/02/25 01:11:19;;;;;;;1.00;0.80;;;8.50;43.80;;;;;;5083605;28;20453;-82
2022/02/25 01:13:48;;;;;;;1.00;0.93;;;8.60;45.40;;;;;;5082343;28;21020;-83
2022/02/25 01:16:16;;;;;;;1.70;0.67;;;8.60;43.70;;;;;;5085172;28;20808;-84
2022/02/25 01:18:44;;;;;;;1.73;0.50;;;8.60;45.80;;;;;;5084554;28;20501;-82
2022/02/25 01:21:12;;;;;;;0.50;0.50;;;8.60;45.60;;;;;;5086267;28;20477;-82
2022/02/25 01:23:41;;;;;;;0.60;0.60;;;8.60;43.20;;;;;;5084520;28;21199;-85
2022/02/25 01:26:09;;;;;;;0.60;0.60;;;8.60;43.90;;;;;;5085348;28;20457;-85
2022/02/25 01:28:41;;;;;;;2.20;0.53;;;8.50;43.70;;;;;;5085297;28;20452;-84
2022/02/25 01:31:09;;;;;;;0.50;0.50;;;8.50;42.30;;;;;;5084310;28;20453;-84
2022/02/25 01:33:38;;;;;;;0.97;0.50;;;8.40;40.90;;;;;;5085480;28;20831;-83
2022/02/25 01:36:06;;;;;;;2.53;0.50;;;8.50;42.20;;;;;;5083978;28;20451;-84
2022/02/25 01:38:34;;;;;;;0.53;0.53;;;8.50;40.50;;;;;;5082401;28;20503;-84
2022/02/25 01:41:03;;;;;;;1.40;0.57;;;8.80;47.10;;;;;;5084102;28;22540;-83
2022/02/25 01:43:32;;;;;;;0.50;0.50;;;8.50;37.80;;;;;;5084193;28;20469;-81
2022/02/25 01:46:02;;;;;;;1.43;0.60;;;8.30;35.10;;;;;;5083667;28;20459;-84
2022/02/25 01:48:30;;;;;;;0.93;0.50;;;8.20;33.80;;;;;;5083527;28;20462;-84
2022/02/25 01:50:59;;;;;;;0.60;0.50;;;8.20;33.60;;;;;;5082751;28;20965;-83
2022/02/25 01:53:27;;;;;;;1.40;0.60;;;8.20;34.30;;;;;;5085179;28;20472;-84
2022/02/25 01:55:55;;;;;;;0.93;0.67;;;8.60;36.80;;;;;;5084488;28;20447;-83
2022/02/25 01:58:25;;;;;;;2.10;0.53;;;8.50;35.90;;;;;;5083176;28;20456;-85
2022/02/25 02:00:56;;;;;;;0.70;0.70;;;8.20;34.10;;;;;;5084551;28;21050;-84
2022/02/25 02:03:25;;;;;;;0.50;0.50;;;8.10;33.80;;;;;;5084771;28;20473;-84
2022/02/25 02:05:54;;;;;;;3.50;0.67;;;8.10;33.50;;;;;;5082403;28;20467;-84
2022/02/25 02:08:23;;;;;;;0.60;0.60;;;8.10;33.50;;;;;;5084250;28;20477;-84
2022/02/25 02:10:53;;;;;;;0.97;0.60;;;8.10;34.10;;;;;;5084716;28;20440;-83
2022/02/25 02:13:21;;;;;;;0.70;0.50;;;8.00;31.40;;;;;;5084666;28;20473;-83
2022/02/25 02:15:49;;;;;;;0.90;0.60;;;8.00;30.60;;;;;;5084085;28;20829;-83
2022/02/25 02:18:18;;;;;;;0.83;0.70;;;7.90;30.60;;;;;;5080013;28;20450;-83
2022/02/25 02:20:47;;;;;;;2.50;0.70;;;7.90;31.30;;;;;;5085847;28;20476;-84
2022/02/25 02:23:17;;;;;;;3.90;0.80;;;7.90;30.20;;;;;;5081028;28;20480;-83
2022/02/25 02:25:45;;;;;;;0.50;0.50;;;8.00;31.50;;;;;;5086170;28;20444;-83
2022/02/25 02:28:20;;;;;;;1.10;0.70;;;8.20;30.60;;;;;;5085412;28;20501;-84
2022/02/25 02:30:49;;;;;;;2.30;0.50;;;8.00;30.70;;;;;;5080898;28;20452;-84
2022/02/25 02:33:17;;;;;;;1.00;0.70;;;8.00;29.90;;;;;;5084813;28;21009;-83
2022/02/25 02:35:45;;;;;;;1.23;0.70;;;8.20;31.40;;;;;;5083816;28;20975;-82
2022/02/25 02:38:14;;;;;;;1.80;0.53;;;7.90;30.20;;;;;;5083264;28;20467;-84
2022/02/25 02:40:44;;;;;;;0.60;0.60;;;7.90;30.20;;;;;;5083076;28;20476;-83
2022/02/25 02:43:12;;;;;;;0.60;0.60;;;8.10;32.10;;;;;;5082671;28;20479;-82
2022/02/25 02:45:41;;;;;;;0.70;0.50;;;8.10;33.50;;;;;;5082507;28;21255;-83
2022/02/25 02:48:09;;;;;;;2.10;0.70;;;8.20;33.40;;;;;;5081212;28;20937;-82
2022/02/25 02:50:38;;;;;;;1.30;0.90;;;8.30;33.60;;;;;;5083970;28;20442;-82
2022/02/25 02:53:06;;;;;;;2.50;0.60;;;8.20;32.10;;;;;;5088196;28;20772;-82
2022/02/25 02:55:34;;;;;;;0.67;0.67;;;8.50;34.30;;;;;;5089309;28;20460;-81
2022/02/25 02:58:04;;;;;;;0.67;0.67;;;8.20;31.80;;;;;;5084769;28;21166;-83
2022/02/25 03:00:33;;;;;;;0.63;0.50;;;8.30;32.70;;;;;;5084782;28;20479;-83
2022/02/25 03:03:01;;;;;;;1.13;0.63;;;8.20;33.10;;;;;;5086594;28;20490;-82
2022/02/25 03:05:30;;;;;;;1.90;0.60;;;8.20;32.80;;;;;;5086776;28;20560;-82
2022/02/25 03:07:58;;;;;;;1.53;0.67;;;8.10;31.10;;;;;;5087557;28;20441;-81
2022/02/25 03:10:26;;;;;;;0.70;0.70;;;8.30;31.80;;;;;;5089149;28;20462;-82
2022/02/25 03:12:54;;;;;;;4.03;0.60;;;8.10;31.60;;;;;;5087081;28;20499;-83
2022/02/25 03:15:24;;;;;;;1.30;0.70;;;8.00;29.90;;;;;;5087716;28;21249;-82
2022/02/25 03:17:52;;;;;;;4.83;0.67;;;7.90;31.10;;;;;;5083620;28;20975;-81
2022/02/25 03:20:22;;;;;;;2.13;0.63;;;7.90;30.20;;;;;;5081699;28;20478;-83
2022/02/25 03:22:50;;;;;;;0.60;0.53;;;7.40;27.20;;;;;;5084650;28;20738;-81
2022/02/25 03:25:20;;;;;;;0.70;0.70;;;7.30;27.20;;;;;;5085510;28;20464;-81
2022/02/25 03:27:49;;;;;;;0.57;0.50;;;7.50;27.90;;;;;;5084618;28;20509;-81
2022/02/25 03:30:17;;;;;;;2.63;0.60;;;7.40;28.20;;;;;;5084709;28;20465;-83
2022/02/25 03:32:47;;;;;;;4.53;0.80;;;7.30;26.50;;;;;;5089313;28;20478;-84
2022/02/25 03:35:16;;;;;;;3.50;0.60;;;7.60;28.60;;;;;;5086420;28;20507;-83
2022/02/25 03:37:45;;;;;;;1.00;0.50;;;7.40;29.30;;;;;;5085914;28;20468;-82
2022/02/25 03:40:14;;;;;;;2.10;0.70;;;7.50;28.40;;;;;;5086363;28;21184;-81
2022/02/25 03:42:43;;;;;;;1.90;0.60;;;7.50;27.30;;;;;;5083188;28;20990;-81
2022/02/25 03:45:12;;;;;;;0.87;0.50;;;7.20;25.50;;;;;;5082922;28;20803;-80
2022/02/25 03:47:40;;;;;;;4.00;0.60;;;7.30;26.90;;;;;;5084151;28;20455;-81
2022/02/25 03:50:11;;;;;;;0.73;0.60;;;7.40;27.50;;;;;;5083146;28;20456;-81
2022/02/25 03:52:40;;;;;;;1.27;0.50;;;7.40;40.40;;;;;;5082383;28;20452;-82
2022/02/25 03:55:09;;;;;;;0.57;0.50;;;7.40;28.10;;;;;;5086645;28;20958;-82
2022/02/25 03:57:37;;;;;;;1.10;0.77;;;7.50;28.20;;;;;;5085015;28;20463;-82
2022/02/25 04:00:08;;;;;;;2.70;0.70;;;7.40;28.10;;;;;;5084828;28;20981;-82
2022/02/25 04:02:36;;;;;;;2.43;0.80;;;7.30;26.20;;;;;;5087961;28;20479;-82
2022/02/25 04:05:06;;;;;;;1.27;0.93;;;7.30;27.80;;;;;;5089846;28;20450;-82
2022/02/25 04:07:35;;;;;;;2.70;0.70;;;7.30;27.10;;;;;;5088116;28;20483;-84
2022/02/25 04:10:04;;;;;;;6.57;0.73;;;7.50;28.70;;;;;;5087255;28;20831;-82
2022/02/25 04:12:32;;;;;;;0.50;0.50;;;7.20;26.40;;;;;;5089284;28;20446;-82
2022/02/25 04:15:01;;;;;;;2.30;0.90;;;7.10;28.00;;;;;;5089098;28;20455;-81
2022/02/25 04:17:29;;;;;;;1.70;0.70;;;7.30;29.00;;;;;;5083300;28;20476;-81
2022/02/25 04:19:57;;;;;;;1.43;0.50;;;7.30;30.00;;;;;;5087360;28;20465;-83
2022/02/25 04:22:26;;;;;;;1.70;0.60;;;7.20;28.20;;;;;;5089663;28;20850;-81
2022/02/25 04:24:55;;;;;;;0.80;0.70;;;7.20;28.30;;;;;;5089745;28;20461;-81
2022/02/25 04:27:24;;;;;;;2.33;0.70;;;7.10;26.70;;;;;;5087278;28;20500;-81
2022/02/25 04:29:52;;;;;;;2.37;0.90;;;7.00;27.90;;;;;;5088592;28;20458;-82
2022/02/25 04:32:21;;;;;;;0.50;0.50;;;7.20;29.40;;;;;;5087427;28;20443;-81
2022/02/25 04:34:50;;;;;;;1.90;0.70;;;7.30;29.10;;;;;;5087051;28;20475;-81
2022/02/25 04:37:18;;;;;;;0.80;0.60;;;7.30;30.80;;;;;;5088235;28;20451;-81
2022/02/25 04:39:47;;;;;;;2.57;0.70;;;7.30;29.50;;;;;;5090500;28;21100;-82
2022/02/25 04:42:16;;;;;;;3.00;0.80;;;7.20;29.50;;;;;;5085862;28;20524;-81
2022/02/25 04:44:44;;;;;;;1.93;0.60;;;7.20;29.90;;;;;;5087123;28;20483;-81
2022/02/25 04:47:13;;;;;;;2.17;0.70;;;7.00;28.40;;;;;;5086817;28;21002;-81
2022/02/25 04:49:41;;;;;;;3.43;1.00;;;7.00;29.40;;;;;;5084939;28;20202;-82
2022/02/25 04:52:12;;;;;;;1.80;0.90;;;7.20;29.80;;;;;;5083462;28;20483;-82
2022/02/25 04:54:40;;;;;;;0.70;0.70;;;7.20;30.70;;;;;;5081002;28;20573;-82
2022/02/25 04:57:08;;;;;;;0.80;0.63;;;7.20;29.80;;;;;;5084544;28;20458;-82
2022/02/25 04:59:41;;;;;;;1.13;0.60;;;7.20;31.20;;;;;;5084549;28;20867;-82
2022/02/25 05:02:09;;;;;;;1.00;0.77;;;7.20;30.00;;;;;;5083998;28;20482;-82
2022/02/25 05:04:37;;;;;;;1.00;0.60;;;7.10;31.30;;;;;;5084288;28;20542;-84
2022/02/25 05:07:06;;;;;;;6.90;1.43;;;7.00;30.10;;;;;;5085639;28;20456;-83
2022/02/25 05:09:34;;;;;;;0.63;0.63;;;6.90;30.80;;;;;;5083825;28;20545;-82
2022/02/25 05:12:03;;;;;;;5.60;1.00;;;6.90;30.80;;;;;;5084227;28;20988;-82
2022/02/25 05:20:23;;;;;;;1.10;0.67;;;7.00;31.20;;;;;;5086975;28;20454;-82
2022/02/25 05:22:54;;;;;;;0.63;0.57;;;7.00;31.80;;;;;;5080751;28;20474;-83
2022/02/25 05:25:23;;;;;;;2.73;0.70;;;7.20;34.90;;;;;;5082598;28;20476;-83
2022/02/25 05:27:52;;;;;;;1.63;0.90;;;7.20;33.80;;;;;;5081760;28;20472;-81
2022/02/25 05:30:21;;;;;;;1.37;0.90;;;7.40;33.70;;;;;;5082137;28;20461;-80
2022/02/25 05:32:51;;;;;;;3.83;1.53;;;7.10;33.90;;;;;;5079632;28;20470;-79
2022/02/25 05:35:20;;;;;;;1.40;0.70;;;7.10;34.00;;;;;;5075591;28;20457;-78
2022/02/25 05:37:50;;;;;;;2.50;0.73;;;7.20;35.30;;;;;;5076944;28;20478;-79
2022/02/25 05:40:20;;;;;;;3.50;0.80;;;6.90;31.80;;;;;;5076720;28;20519;-80
2022/02/25 05:42:51;;;;;;;3.40;0.90;;;7.00;31.50;;;;;;5079655;28;20483;-79
2022/02/25 05:45:20;;;;;;;2.50;0.90;;;6.80;34.20;;;;;;5076553;28;20454;-80
2022/02/25 05:47:50;;;;;;;1.73;0.73;;;6.80;34.10;;;;;;5072578;28;20982;-81
2022/02/25 05:50:20;;;;;;;1.60;0.80;;;6.70;34.10;;;;;;5075496;28;20542;-80
2022/02/25 05:52:49;;;;;;;1.50;0.90;;;6.70;33.70;;;;;;5075862;28;20506;-79
2022/02/25 05:55:20;;;;;;;2.43;0.50;;;6.90;35.80;;;;;;5074288;28;20995;-80
2022/02/25 05:57:48;;;;;;;2.93;0.70;;;6.80;35.60;;;;;;5077117;28;20462;-79
2022/02/25 06:00:18;;;;;;;0.70;0.70;;;6.90;36.10;;;;;;5073323;28;20470;-80
2022/02/25 06:02:48;;;;;;;1.87;0.77;;;7.00;35.60;;;;;;5073936;28;20486;-79
2022/02/25 06:05:20;;;;;;;5.23;0.90;;;6.90;36.00;;;;;;5075599;28;20440;-81
2022/02/25 06:07:48;;;;;;;1.10;0.70;;;6.90;36.30;;;;;;5076773;28;20455;-79
2022/02/25 06:10:17;;;;;;;2.73;1.33;;;6.80;36.70;;;;;;5076462;28;20447;-80
2022/02/25 06:12:45;;;;;;;7.47;1.00;;;6.70;40.20;;;;;;5077143;28;21044;-80
2022/02/25 06:15:14;;;;;;;1.27;0.70;;;6.80;42.50;;;;;;5075223;28;20486;-80
2022/02/25 06:17:47;;;;;;;2.33;0.80;;;6.90;41.40;;;;;;5071732;28;20996;-81
2022/02/25 06:20:18;;;;;;;3.87;1.30;;;6.60;41.90;;;;;;5071993;28;21287;-79
2022/02/25 06:22:47;;;;;;;3.13;0.90;;;6.60;41.60;;;;;;5073278;28;20493;-78
2022/02/25 06:25:16;;;;;;;2.90;0.90;;;6.50;39.70;;;;;;5073694;28;20446;-78
2022/02/25 06:27:45;;;;;;;2.43;0.80;;;6.40;40.10;;;;;;5077836;28;20549;-78
2022/02/25 06:30:15;;;;;;;3.60;1.17;;;6.50;42.40;;;;;;5077050;28;20455;-79
2022/02/25 06:32:44;;;;;;;3.33;1.00;;;6.50;43.10;;;;;;5079541;28;21028;-79
2022/02/25 06:35:13;;;;;;;3.50;0.87;;;6.50;44.40;;;;;;5082719;28;20441;-79
2022/02/25 06:37:43;;;;;;;8.10;1.10;;;6.80;44.80;;;;;;5082381;28;21086;-79
2022/02/25 06:40:12;;;;;;;1.00;0.80;;;6.40;46.40;;;;;;5083169;28;20467;-79
2022/02/25 06:42:41;;;;;;;2.00;0.80;;;6.50;46.70;;;;;;5086268;28;20488;-78
2022/02/25 06:45:15;;;;;;;1.20;1.00;;;6.30;46.50;;;;;;5081844;28;20517;-79
2022/02/25 06:47:44;;;;;;;1.60;0.73;;;6.00;47.00;;;;;;5084148;28;20473;-79
2022/02/25 06:50:13;;;;;;;1.40;0.90;;;6.50;51.00;;;;;;5083932;28;20476;-79
2022/02/25 06:52:43;;;;;;;0.90;0.73;;;6.10;50.80;;;;;;5079525;28;20507;-80
2022/02/25 06:55:13;;;;;;;3.50;0.73;;;6.20;69.80;;;;;;5080696;28;20493;-79
2022/02/25 06:58:03;;;;;;;2.60;1.10;;;6.20;54.90;;;;;;5079569;28;20457;-80
2022/02/25 07:00:32;;;;;;;2.73;0.90;;;6.20;53.80;;;;;;5082081;28;22599;-80
2022/02/25 07:03:00;;;;;;;1.70;0.90;;;6.40;56.10;;;;;;5081453;28;20490;-80
2022/02/25 07:05:29;;;;;;;3.57;0.70;;;6.40;54.80;;;;;;5082291;28;20578;-79
2022/02/25 07:07:58;;;;;;;2.83;0.63;;;6.40;55.10;;;;;;5080800;28;21009;-80
2022/02/25 07:10:31;;;;;;;2.20;0.63;;;6.20;62.00;;;;;;5078145;28;20547;-79
2022/02/25 07:13:00;;;;;;;2.83;1.07;;;6.20;56.40;;;;;;5073938;28;20473;-80
2022/02/25 07:15:29;;;;;;;2.87;1.03;;;6.20;56.90;;;;;;5074774;28;20462;-79
2022/02/25 07:17:57;;;;;;;3.73;1.57;;;6.20;54.80;;;;;;5078834;28;20453;-79
2022/02/25 07:20:26;;;;;;;1.27;0.60;;;6.50;58.30;;;;;;5080498;28;20468;-79
2022/02/25 07:22:55;;;;;;;4.67;1.00;;;6.60;57.00;;;;;;5081963;28;20570;-80
2022/02/25 07:25:25;;;;;;;2.30;1.20;;;6.80;56.90;;;;;;5079897;28;20490;-79
2022/02/25 07:27:53;;;;;;;1.60;0.70;;;6.80;54.70;;;;;;5072577;28;20514;-80
2022/02/25 07:30:21;;;;;;;4.37;0.70;;;6.90;54.80;;;;;;5078717;28;21004;-80
2022/02/25 07:32:51;;;;;;;1.53;0.87;;;6.90;55.70;;;;;;5078340;28;20489;-79
2022/02/25 07:35:22;;;;;;;1.50;1.00;;;6.80;53.50;;;;;;5076812;28;20482;-79
2022/02/25 07:37:50;;;;;;;1.57;0.80;;;6.90;53.60;;;;;;5076184;28;20462;-79
2022/02/25 07:40:18;;;;;;;0.87;0.87;;;6.80;51.40;;;;;;5077567;28;20835;-78
2022/02/25 07:42:49;;;;;;;1.37;0.60;;;6.90;52.90;;;;;;5078156;28;20458;-77
2022/02/25 07:45:17;;;;;;;3.33;0.93;;;7.00;52.50;;;;;;5077086;28;20477;-78
2022/02/25 07:47:45;;;;;;;1.30;1.07;;;7.00;51.20;;;;;;5078414;28;20551;-79
2022/02/25 07:50:15;;;;;;;2.63;0.80;;;6.90;50.50;;;;;;5077865;28;20467;-80
2022/02/25 07:52:43;;;;;;;1.80;0.70;;;7.00;50.00;;;;;;5074734;28;20457;-79
2022/02/25 07:55:12;;;;;;;2.00;0.70;;;7.00;48.10;;;;;;5078937;28;20490;-78
2022/02/25 07:57:40;;;;;;;5.00;1.40;;;6.90;49.50;;;;;;5079161;28;20969;-78
2022/02/25 08:00:26;;;;;;;2.30;0.60;;;7.10;51.40;;;;;;5079441;28;20556;-79
2022/02/25 08:02:54;;;;;;;4.70;0.83;;;7.40;52.40;;;;;;5079551;28;20998;-78
2022/02/25 08:05:23;;;;;;;4.60;1.23;;;7.60;53.10;;;;;;5080062;28;20444;-78
2022/02/25 08:07:52;;;;;;;2.23;0.83;;;7.90;55.50;;;;;;5079037;28;20459;-79
2022/02/25 08:10:21;;;;;;;1.90;0.60;;;8.20;55.40;;;;;;5079735;28;20537;-79
2022/02/25 08:12:49;;;;;;;2.43;1.23;;;8.30;52.10;;;;;;5077405;28;20491;-78
2022/02/25 08:15:17;;;;;;;4.57;1.03;;;8.60;56.50;;;;;;5079179;28;20548;-79
2022/02/25 08:17:48;;;;;;;1.70;0.80;;;8.60;52.20;;;;;;5074394;28;20686;-79
2022/02/25 08:20:16;;;;;;;2.10;0.73;;;8.70;54.00;;;;;;5079645;28;20540;-80
2022/02/25 08:22:45;;;;;;;1.90;0.70;;;8.70;52.10;;;;;;5078758;28;20460;-80
2022/02/25 08:25:13;;;;;;;3.33;1.17;;;8.60;49.20;;;;;;5080011;28;20598;-79
2022/02/25 08:27:43;;;;;;;1.60;1.10;;;8.60;51.00;;;;;;5081264;28;20449;-80
2022/02/25 08:30:14;;;;;;;1.30;0.63;;;8.50;49.50;;;;;;5079469;28;20475;-79
2022/02/25 08:32:44;;;;;;;6.00;1.17;;;8.60;51.00;;;;;;5079841;28;20453;-81
2022/02/25 08:35:14;;;;;;;3.13;0.80;;;8.80;52.20;;;;;;5083067;28;20518;-80
2022/02/25 08:37:43;;;;;;;3.60;1.00;;;8.80;51.00;;;;;;5084221;28;20447;-80
2022/02/25 08:40:14;;;;;;;1.20;0.90;;;8.90;51.30;;;;;;5082706;28;20873;-79
2022/02/25 08:42:42;;;;;;;3.40;1.20;;;8.80;48.90;;;;;;5081265;28;20457;-80
2022/02/25 08:45:11;;;;;;;2.73;1.23;;;8.70;48.70;;;;;;5073920;28;20575;-80
2022/02/25 08:47:41;;;;;;;2.40;0.90;;;8.70;47.80;;;;;;5073139;28;20458;-80
2022/02/25 08:50:10;;;;;;;2.40;0.90;;;8.90;68.30;;;;;;5076783;28;20489;-80
2022/02/25 08:52:42;;;;;;;1.90;1.00;;;9.20;53.90;;;;;;5080433;28;20444;-79
2022/02/25 08:55:10;;;;;;;5.80;1.10;;;9.40;54.20;;;;;;5078370;28;20464;-80
2022/02/25 08:57:42;;;;;;;1.73;0.90;;;9.50;52.20;;;;;;5073605;28;20454;-79
2022/02/25 09:00:13;;;;;;;4.80;1.10;;;9.70;54.50;;;;;;5075388;28;20469;-77
2022/02/25 09:02:43;;;;;;;0.90;0.70;;;9.90;53.70;;;;;;5075845;28;20488;-80
2022/02/25 09:05:12;;;;;;;3.60;0.80;;;9.60;48.30;;;;;;5083614;28;20467;-79
2022/02/25 09:07:41;;;;;;;2.90;0.73;;;9.50;47.90;;;;;;5074658;28;20456;-79
2022/02/25 09:10:12;;;;;;;4.17;1.00;;;9.50;50.60;;;;;;5074087;28;20839;-80
2022/02/25 09:12:41;;;;;;;2.60;1.00;;;9.70;51.00;;;;;;5076199;28;20459;-79
2022/02/25 09:15:11;;;;;;;2.93;1.00;;;10.00;50.90;;;;;;5073655;28;20450;-78
2022/02/25 09:17:40;;;;;;;1.77;1.00;;;10.20;52.50;;;;;;5074712;28;21013;-79
2022/02/25 09:20:10;;;;;;;2.70;0.70;;;10.20;49.20;;;;;;5073757;28;20492;-78
2022/02/25 09:22:39;;;;;;;2.83;0.90;;;10.10;44.00;;;;;;5074229;28;20454;-79
2022/02/25 09:25:09;;;;;;;2.30;0.70;;;10.20;44.00;;;;;;5072895;28;22480;-80
2022/02/25 09:27:39;;;;;;;1.47;0.77;;;10.40;44.60;;;;;;5075483;28;20802;-80
2022/02/25 09:30:10;;;;;;;3.70;0.90;;;10.60;44.70;;;;;;5073617;28;20462;-82
2022/02/25 09:32:38;;;;;;;3.10;0.80;;;10.60;42.10;;;;;;5070995;28;20450;-80
2022/02/25 09:35:07;;;;;;;2.30;1.00;;;10.80;44.70;;;;;;5077510;28;20445;-81
2022/02/25 09:37:36;;;;;;;1.57;0.77;;;10.80;43.50;;;;;;5077408;28;20466;-82
2022/02/25 09:40:07;;;;;;;3.87;0.90;;;10.60;43.00;;;;;;5085441;28;20453;-85
2022/02/25 09:42:38;;;;;;;3.77;1.07;;;10.80;49.80;;;;;;5077708;28;20446;-80
2022/02/25 09:45:09;;;;;;;7.27;1.03;;;11.10;49.50;;;;;;5079001;28;20476;-79
2022/02/25 09:47:37;;;;;;;5.60;0.80;;;11.00;42.70;;;;;;5081929;28;20504;-79
2022/02/25 09:50:08;;;;;;;2.50;0.70;;;10.60;38.20;;;;;;5077361;28;20463;-80
2022/02/25 09:52:38;;;;;;;2.60;1.23;;;10.60;37.20;;;;;;5083141;28;20449;-79
2022/02/25 09:55:08;;;;;;;0.90;0.90;;;10.60;38.00;;;;;;5077846;28;20459;-79
2022/02/25 09:57:37;;;;;;;0.83;0.60;;;10.70;36.40;;;;;;5077244;28;20457;-79
2022/02/25 10:00:07;;;;;;;2.20;0.60;;;10.20;33.50;;;;;;5075015;28;20560;-80
2022/02/25 10:02:40;;;;;;;1.03;0.80;;;10.10;32.50;;;;;;5083401;28;20855;-78
2022/02/25 10:05:13;;;;;;;3.00;0.90;;;9.80;29.60;;;;;;5083028;28;20504;-78
2022/02/25 10:07:41;;;;;;;4.40;1.50;;;9.90;32.30;;;;;;5082072;28;20457;-79
2022/02/25 10:10:12;;;;;;;2.83;1.00;;;10.30;36.80;;;;;;5081251;28;20452;-79
2022/02/25 10:12:46;;;;;;;3.23;0.70;;;10.70;39.50;;;;;;5083027;28;20450;-79
2022/02/25 10:15:14;;;;;;;1.97;0.70;;;11.00;40.20;;;;;;5085981;28;20522;-79
2022/02/25 10:17:42;;;;;;;1.53;1.10;;;10.90;37.10;;;;;;5077996;28;20463;-78
2022/02/25 10:20:15;;;;;;;5.80;1.00;;;10.90;36.00;;;;;;5080582;28;20466;-80
2022/02/25 10:23:16;;;;;;;4.90;0.90;;;10.40;31.40;;;;;;5082727;28;20674;-79
2022/02/25 10:25:45;;;;;;;2.30;0.90;;;10.20;31.20;;;;;;5087932;28;20503;-79
2022/02/25 10:28:17;;;;;;;1.10;0.70;;;10.30;33.90;;;;;;5081670;28;20553;-79
2022/02/25 10:30:47;;;;;;;3.90;0.80;;;10.70;39.10;;;;;;5085401;28;20464;-80
2022/02/25 10:33:15;;;;;;;3.10;1.00;;;10.90;36.10;;;;;;5081567;28;20473;-80
2022/02/25 10:35:43;;;;;;;3.70;1.37;;;11.00;38.20;;;;;;5085135;28;20487;-80
2022/02/25 10:38:14;;;;;;;1.73;1.03;;;11.40;44.70;;;;;;5086085;28;20463;-79
2022/02/25 10:40:44;;;;;;;1.40;0.67;;;11.30;39.80;;;;;;5084191;28;20446;-78
2022/02/25 10:43:28;;;;;;;3.00;1.10;;;11.60;40.00;;;;;;5086585;28;22147;-79
2022/02/25 10:45:57;;;;;;;1.90;0.90;;;11.80;41.10;;;;;;5079484;28;20543;-80
2022/02/25 10:48:30;;;;;;;2.00;0.83;;;11.70;39.00;;;;;;5086416;28;20455;-79
2022/02/25 10:51:01;;;;;;;8.33;1.17;;;11.10;30.00;;;;;;5084306;28;20460;-79
2022/02/25 10:53:31;;;;;;;2.50;0.67;;;10.90;29.20;;;;;;5083610;28;20514;-80
2022/02/25 10:56:06;;;;;;;1.63;0.87;;;10.60;27.00;;;;;;5085277;28;20484;-78
2022/02/25 10:58:40;;;;;;;1.43;0.80;;;10.70;26.70;;;;;;5080777;28;20455;-80
2022/02/25 11:01:13;;;;;;;1.03;0.60;;;11.20;29.60;;;;;;5084990;28;20520;-80
2022/02/25 11:03:42;;;;;;;1.80;0.97;;;11.50;34.30;;;;;;5080499;28;20487;-79
2022/02/25 11:06:12;;;;;;;1.20;0.60;;;11.90;34.50;;;;;;5079012;28;20784;-80
2022/02/25 11:08:41;;;;;;;2.73;0.70;;;12.10;35.30;;;;;;5078664;28;20762;-80
2022/02/25 11:11:09;;;;;;;2.67;0.80;;;12.00;34.10;;;;;;5077796;28;20967;-79
2022/02/25 11:13:39;;;;;;;1.40;0.60;;;12.00;33.10;;;;;;5082961;28;20480;-79
2022/02/25 11:16:09;;;;;;;3.10;0.63;;;12.20;36.60;;;;;;5085013;28;20535;-80
2022/02/25 11:18:38;;;;;;;1.60;0.70;;;12.30;36.60;;;;;;5080264;28;20602;-80
2022/02/25 11:21:07;;;;;;;2.53;0.90;;;12.50;38.90;;;;;;5081651;28;20473;-79
2022/02/25 11:23:35;;;;;;;1.80;1.40;;;12.70;41.30;;;;;;5078353;28;20481;-80
2022/02/25 11:26:05;;;;;;;1.80;0.70;;;13.10;42.10;;;;;;5079690;28;20498;-80
2022/02/25 11:28:34;;;;;;;1.50;1.23;;;13.30;43.20;;;;;;5084872;28;20448;-79
2022/02/25 11:31:08;;;;;;;1.63;0.80;;;13.50;44.10;;;;;;5085734;28;20456;-80
2022/02/25 11:33:37;;;;;;;6.90;0.73;;;13.80;42.60;;;;;;5081915;28;20512;-78
2022/02/25 11:36:08;;;;;;;0.90;0.70;;;13.50;37.80;;;;;;5080084;28;20449;-79
2022/02/25 11:38:40;;;;;;;4.07;0.80;;;13.40;35.90;;;;;;5079710;28;20781;-79
2022/02/25 11:41:17;;;;;;;1.90;0.90;;;13.20;32.80;;;;;;5086392;28;20465;-80
2022/02/25 11:43:47;;;;;;;1.23;0.80;;;13.00;31.80;;;;;;5080310;28;21087;-81
2022/02/25 11:46:23;;;;;;;1.70;0.60;;;12.90;31.40;;;;;;5079273;28;20486;-79
2022/02/25 11:48:55;;;;;;;2.30;0.93;;;13.10;33.30;;;;;;5081993;28;20449;-81
2022/02/25 11:51:32;;;;;;;1.80;0.80;;;12.90;33.20;;;;;;5084149;28;20465;-79
2022/02/25 11:54:20;;;;;;;2.40;0.60;;;12.80;44.80;;;;;;5080821;28;20476;-79
2022/02/25 11:57:32;;;;;;;1.13;0.67;;;12.70;30.00;;;;;;5084587;28;20454;-80
2022/02/25 12:00:18;;;;;;;1.37;0.70;;;12.60;27.30;;;;;;5082820;28;20463;-80
2022/02/25 12:03:24;;;;;;;1.80;1.30;;;12.30;29.80;;;;;;5084503;28;20494;-81
2022/02/25 12:05:54;;;;;;;1.30;0.70;;;12.40;32.60;;;;;;5085667;28;20479;-80
2022/02/25 12:08:26;;;;;;;2.33;0.80;;;12.30;31.10;;;;;;5081157;28;20471;-80
2022/02/25 12:10:57;;;;;;;1.20;1.07;;;12.10;26.40;;;;;;5083581;28;20503;-79
2022/02/25 12:13:27;;;;;;;1.30;0.60;;;12.10;26.40;;;;;;5084408;28;20488;-80
2022/02/25 12:15:56;;;;;;;1.80;0.70;;;12.10;25.10;;;;;;5083907;28;20451;-80
2022/02/25 12:18:39;;;;;;;1.70;0.70;;;11.90;22.80;;;;;;5077922;28;20538;-80
2022/02/25 12:21:12;;;;;;;1.00;0.60;;;11.90;24.00;;;;;;5082988;28;20455;-80
2022/02/25 12:23:49;;;;;;;6.40;1.00;;;11.90;24.40;;;;;;5083542;28;20472;-79
2022/02/25 12:26:32;;;;;;;0.80;0.80;;;11.60;33.20;;;;;;5081622;28;20486;-80
2022/02/25 12:29:15;;;;;;;1.00;0.67;;;11.50;21.20;;;;;;5078138;28;20463;-79
2022/02/25 12:31:45;;;;;;;1.20;0.70;;;11.50;20.30;;;;;;5082095;28;20455;-79
2022/02/25 12:34:25;;;;;;;2.40;0.70;;;11.40;20.00;;;;;;5076857;28;21089;-80
2022/02/25 12:36:55;;;;;;;1.27;0.70;;;11.30;18.30;;;;;;5078120;28;20473;-79
2022/02/25 12:39:31;;;;;;;2.57;0.60;;;11.30;20.30;;;;;;5078282;28;20465;-80
2022/02/25 12:42:06;;;;;;;1.80;1.13;;;11.20;18.80;;;;;;5078530;28;20986;-79
2022/02/25 12:44:37;;;;;;;2.67;0.60;;;11.10;17.50;;;;;;5083052;28;21001;-78
2022/02/25 12:47:07;;;;;;;5.10;1.00;;;10.80;15.70;;;;;;5084582;28;21264;-79
2022/02/25 12:49:39;;;;;;;2.53;0.80;;;10.90;18.80;;;;;;5083194;28;20948;-79
2022/02/25 12:52:10;;;;;;;1.00;0.73;;;11.00;20.30;;;;;;5083008;28;20489;-79
2022/02/25 12:54:39;;;;;;;6.43;1.50;;;11.10;23.00;;;;;;5079924;28;20469;-81
2022/02/25 12:57:11;;;;;;;1.30;0.90;;;11.40;25.20;;;;;;5082032;28;20505;-80
2022/02/25 12:59:44;;;;;;;2.57;0.90;;;11.30;22.70;;;;;;5081457;28;21389;-79
2022/02/25 13:02:14;;;;;;;3.40;0.80;;;11.40;21.80;;;;;;5081713;28;20450;-79
2022/02/25 13:04:44;;;;;;;2.10;0.67;;;11.30;20.60;;;;;;5080270;28;20593;-79
2022/02/25 13:07:15;;;;;;;1.67;0.80;;;11.20;20.00;;;;;;5076743;28;20463;-79
2022/02/25 13:09:44;;;;;;;3.00;0.90;;;11.20;19.00;;;;;;5081318;28;20473;-80
2022/02/25 13:12:16;;;;;;;0.90;0.80;;;11.00;18.60;;;;;;5083882;28;20454;-79
2022/02/25 13:14:47;;;;;;;1.63;0.70;;;10.60;15.30;;;;;;5077577;28;20474;-80